sensor_id;sensor_type;location;lat;lon;timestamp;P1;durP1;ratioP1;P2;durP2;ratioP2
67715;SDS011;54508;43.238;25.306;2023-07-31T00:00:24;3.47;;;3.17;;
67715;SDS011;54508;43.238;25.306;2023-07-31T00:02:49;3.23;;;2.93;;
67715;SDS011;54508;43.238;25.306;2023-07-31T00:05:15;4.27;;;3.27;;
67715;SDS011;54508;43.238;25.306;2023-07-31T00:07:40;3.25;;;2.95;;
67715;SDS011;54508;43.238;25.306;2023-07-31T00:10:06;3.87;;;2.87;;
67715;SDS011;54508;43.238;25.306;2023-07-31T00:12:32;4.63;;;3.60;;
67715;SDS011;54508;43.238;25.306;2023-07-31T00:14:57;3.60;;;3.30;;
67715;SDS011;54508;43.238;25.306;2023-07-31T00:17:23;3.35;;;3.05;;
67715;SDS011;54508;43.238;25.306;2023-07-31T00:19:48;3.13;;;2.83;;
67715;SDS011;54508;43.238;25.306;2023-07-31T00:22:15;3.40;;;2.92;;
67715;SDS011;54508;43.238;25.306;2023-07-31T00:24:41;4.03;;;3.60;;
67715;SDS011;54508;43.238;25.306;2023-07-31T00:27:06;3.60;;;3.30;;
67715;SDS011;54508;43.238;25.306;2023-07-31T00:29:32;3.50;;;3.10;;
67715;SDS011;54508;43.238;25.306;2023-07-31T00:31:57;3.90;;;3.50;;
67715;SDS011;54508;43.238;25.306;2023-07-31T00:34:23;3.97;;;3.57;;
67715;SDS011;54508;43.238;25.306;2023-07-31T00:36:48;3.72;;;3.42;;
67715;SDS011;54508;43.238;25.306;2023-07-31T00:39:14;3.80;;;3.50;;
67715;SDS011;54508;43.238;25.306;2023-07-31T00:41:39;4.17;;;3.77;;
67715;SDS011;54508;43.238;25.306;2023-07-31T00:44:04;4.10;;;3.70;;
67715;SDS011;54508;43.238;25.306;2023-07-31T00:46:30;4.17;;;3.77;;
67715;SDS011;54508;43.238;25.306;2023-07-31T00:48:56;4.03;;;3.65;;
67715;SDS011;54508;43.238;25.306;2023-07-31T00:51:21;4.00;;;3.70;;
67715;SDS011;54508;43.238;25.306;2023-07-31T00:53:47;4.25;;;3.85;;
67715;SDS011;54508;43.238;25.306;2023-07-31T00:56:12;3.97;;;3.63;;
67715;SDS011;54508;43.238;25.306;2023-07-31T00:58:38;4.37;;;3.97;;
67715;SDS011;54508;43.238;25.306;2023-07-31T01:01:04;3.97;;;3.58;;
67715;SDS011;54508;43.238;25.306;2023-07-31T01:03:30;4.17;;;3.80;;
67715;SDS011;54508;43.238;25.306;2023-07-31T01:06:05;3.93;;;3.63;;
67715;SDS011;54508;43.238;25.306;2023-07-31T01:08:43;4.40;;;4.00;;
67715;SDS011;54508;43.238;25.306;2023-07-31T01:11:48;4.57;;;4.05;;
67715;SDS011;54508;43.238;25.306;2023-07-31T01:14:12;4.22;;;3.83;;
67715;SDS011;54508;43.238;25.306;2023-07-31T01:16:37;5.60;;;4.67;;
67715;SDS011;54508;43.238;25.306;2023-07-31T01:19:02;5.10;;;4.60;;
67715;SDS011;54508;43.238;25.306;2023-07-31T01:27:30;5.10;;;4.60;;
67715;SDS011;54508;43.238;25.306;2023-07-31T01:30:08;5.00;;;4.50;;
67715;SDS011;54508;43.238;25.306;2023-07-31T01:32:40;5.68;;;4.65;;
67715;SDS011;54508;43.238;25.306;2023-07-31T01:35:06;4.90;;;4.40;;
67715;SDS011;54508;43.238;25.306;2023-07-31T01:37:32;5.28;;;4.78;;
67715;SDS011;54508;43.238;25.306;2023-07-31T01:39:57;5.07;;;4.57;;
67715;SDS011;54508;43.238;25.306;2023-07-31T01:42:23;5.00;;;4.50;;
67715;SDS011;54508;43.238;25.306;2023-07-31T01:44:48;5.27;;;4.57;;
67715;SDS011;54508;43.238;25.306;2023-07-31T01:47:14;6.30;;;5.70;;
67715;SDS011;54508;43.238;25.306;2023-07-31T01:49:39;5.28;;;4.78;;
67715;SDS011;54508;43.238;25.306;2023-07-31T01:52:05;4.87;;;4.47;;
67715;SDS011;54508;43.238;25.306;2023-07-31T01:54:31;5.05;;;4.55;;
67715;SDS011;54508;43.238;25.306;2023-07-31T01:56:56;5.03;;;4.53;;
67715;SDS011;54508;43.238;25.306;2023-07-31T01:59:22;5.13;;;4.63;;
67715;SDS011;54508;43.238;25.306;2023-07-31T02:01:47;5.20;;;4.70;;
67715;SDS011;54508;43.238;25.306;2023-07-31T02:04:13;5.03;;;4.63;;
67715;SDS011;54508;43.238;25.306;2023-07-31T02:06:38;5.27;;;4.67;;
67715;SDS011;54508;43.238;25.306;2023-07-31T02:09:04;4.85;;;4.45;;
67715;SDS011;54508;43.238;25.306;2023-07-31T02:11:29;5.90;;;5.32;;
67715;SDS011;54508;43.238;25.306;2023-07-31T02:13:55;5.30;;;4.80;;
67715;SDS011;54508;43.238;25.306;2023-07-31T02:16:20;5.50;;;5.00;;
67715;SDS011;54508;43.238;25.306;2023-07-31T02:18:46;5.10;;;4.60;;
67715;SDS011;54508;43.238;25.306;2023-07-31T02:21:11;6.03;;;5.43;;
67715;SDS011;54508;43.238;25.306;2023-07-31T02:23:36;5.33;;;4.83;;
67715;SDS011;54508;43.238;25.306;2023-07-31T02:26:02;6.00;;;5.30;;
67715;SDS011;54508;43.238;25.306;2023-07-31T02:28:28;6.10;;;5.50;;
67715;SDS011;54508;43.238;25.306;2023-07-31T02:30:53;5.68;;;5.10;;
67715;SDS011;54508;43.238;25.306;2023-07-31T02:33:19;5.83;;;5.33;;
67715;SDS011;54508;43.238;25.306;2023-07-31T02:35:44;5.80;;;5.30;;
67715;SDS011;54508;43.238;25.306;2023-07-31T02:38:10;6.28;;;5.45;;
67715;SDS011;54508;43.238;25.306;2023-07-31T02:40:35;5.80;;;5.20;;
67715;SDS011;54508;43.238;25.306;2023-07-31T02:43:01;6.50;;;5.40;;
67715;SDS011;54508;43.238;25.306;2023-07-31T02:45:26;5.50;;;5.00;;
67715;SDS011;54508;43.238;25.306;2023-07-31T02:47:52;6.65;;;5.97;;
67715;SDS011;54508;43.238;25.306;2023-07-31T02:50:17;6.13;;;5.63;;
67715;SDS011;54508;43.238;25.306;2023-07-31T02:52:43;5.90;;;5.30;;
67715;SDS011;54508;43.238;25.306;2023-07-31T02:55:08;6.10;;;5.50;;
67715;SDS011;54508;43.238;25.306;2023-07-31T02:57:34;6.28;;;5.40;;
67715;SDS011;54508;43.238;25.306;2023-07-31T02:59:59;5.70;;;5.20;;
67715;SDS011;54508;43.238;25.306;2023-07-31T03:02:24;5.97;;;5.30;;
67715;SDS011;54508;43.238;25.306;2023-07-31T03:04:50;5.70;;;5.20;;
67715;SDS011;54508;43.238;25.306;2023-07-31T03:07:15;5.88;;;5.38;;
67715;SDS011;54508;43.238;25.306;2023-07-31T03:09:41;6.00;;;5.47;;
67715;SDS011;54508;43.238;25.306;2023-07-31T03:12:07;5.73;;;5.13;;
67715;SDS011;54508;43.238;25.306;2023-07-31T03:14:33;7.53;;;5.30;;
67715;SDS011;54508;43.238;25.306;2023-07-31T03:16:59;6.27;;;5.67;;
67715;SDS011;54508;43.238;25.306;2023-07-31T03:19:24;6.00;;;5.40;;
67715;SDS011;54508;43.238;25.306;2023-07-31T03:21:49;6.00;;;5.40;;
67715;SDS011;54508;43.238;25.306;2023-07-31T03:24:15;6.03;;;5.45;;
67715;SDS011;54508;43.238;25.306;2023-07-31T03:26:40;5.60;;;5.20;;
67715;SDS011;54508;43.238;25.306;2023-07-31T03:29:09;6.13;;;5.63;;
67715;SDS011;54508;43.238;25.306;2023-07-31T03:31:34;5.70;;;5.20;;
67715;SDS011;54508;43.238;25.306;2023-07-31T03:33:59;6.40;;;5.27;;
67715;SDS011;54508;43.238;25.306;2023-07-31T03:36:25;6.10;;;5.50;;
67715;SDS011;54508;43.238;25.306;2023-07-31T03:38:53;7.22;;;5.30;;
67715;SDS011;54508;43.238;25.306;2023-07-31T03:41:19;6.15;;;5.30;;
67715;SDS011;54508;43.238;25.306;2023-07-31T03:43:46;6.05;;;5.43;;
67715;SDS011;54508;43.238;25.306;2023-07-31T03:46:14;5.72;;;5.22;;
67715;SDS011;54508;43.238;25.306;2023-07-31T03:48:40;5.53;;;4.97;;
67715;SDS011;54508;43.238;25.306;2023-07-31T03:51:05;6.03;;;5.43;;
67715;SDS011;54508;43.238;25.306;2023-07-31T03:53:31;5.80;;;5.20;;
67715;SDS011;54508;43.238;25.306;2023-07-31T03:55:56;6.25;;;5.68;;
67715;SDS011;54508;43.238;25.306;2023-07-31T03:58:21;5.70;;;5.20;;
67715;SDS011;54508;43.238;25.306;2023-07-31T04:00:47;5.97;;;5.47;;
67715;SDS011;54508;43.238;25.306;2023-07-31T04:03:12;5.60;;;5.10;;
67715;SDS011;54508;43.238;25.306;2023-07-31T04:05:41;5.60;;;5.10;;
67715;SDS011;54508;43.238;25.306;2023-07-31T04:08:11;5.28;;;4.88;;
67715;SDS011;54508;43.238;25.306;2023-07-31T04:10:39;5.80;;;5.30;;
67715;SDS011;54508;43.238;25.306;2023-07-31T04:13:08;5.95;;;5.45;;
67715;SDS011;54508;43.238;25.306;2023-07-31T04:15:33;5.77;;;5.27;;
67715;SDS011;54508;43.238;25.306;2023-07-31T04:17:59;5.88;;;5.38;;
67715;SDS011;54508;43.238;25.306;2023-07-31T04:20:24;5.90;;;5.30;;
67715;SDS011;54508;43.238;25.306;2023-07-31T04:22:49;5.77;;;5.27;;
67715;SDS011;54508;43.238;25.306;2023-07-31T04:25:15;6.10;;;5.30;;
67715;SDS011;54508;43.238;25.306;2023-07-31T04:27:40;5.40;;;4.90;;
67715;SDS011;54508;43.238;25.306;2023-07-31T04:30:06;6.15;;;5.55;;
67715;SDS011;54508;43.238;25.306;2023-07-31T04:32:32;5.67;;;5.07;;
67715;SDS011;54508;43.238;25.306;2023-07-31T04:34:57;5.53;;;5.03;;
67715;SDS011;54508;43.238;25.306;2023-07-31T04:37:23;5.53;;;5.03;;
67715;SDS011;54508;43.238;25.306;2023-07-31T04:39:48;5.00;;;4.60;;
67715;SDS011;54508;43.238;25.306;2023-07-31T04:42:14;5.83;;;5.23;;
67715;SDS011;54508;43.238;25.306;2023-07-31T04:44:39;5.10;;;4.70;;
67715;SDS011;54508;43.238;25.306;2023-07-31T04:47:05;5.90;;;5.40;;
67715;SDS011;54508;43.238;25.306;2023-07-31T04:49:31;6.00;;;5.50;;
67715;SDS011;54508;43.238;25.306;2023-07-31T04:51:57;6.10;;;5.60;;
67715;SDS011;54508;43.238;25.306;2023-07-31T04:54:22;6.93;;;5.83;;
67715;SDS011;54508;43.238;25.306;2023-07-31T04:56:48;5.97;;;5.40;;
67715;SDS011;54508;43.238;25.306;2023-07-31T04:59:13;7.10;;;5.32;;
67715;SDS011;54508;43.238;25.306;2023-07-31T05:01:39;8.03;;;5.30;;
67715;SDS011;54508;43.238;25.306;2023-07-31T05:04:04;6.70;;;6.00;;
67715;SDS011;54508;43.238;25.306;2023-07-31T05:06:29;8.40;;;6.17;;
67715;SDS011;54508;43.238;25.306;2023-07-31T05:08:55;14.83;;;7.50;;
67715;SDS011;54508;43.238;25.306;2023-07-31T05:11:20;12.13;;;6.95;;
67715;SDS011;54508;43.238;25.306;2023-07-31T05:13:46;12.93;;;6.80;;
67715;SDS011;54508;43.238;25.306;2023-07-31T05:16:11;11.43;;;6.77;;
67715;SDS011;54508;43.238;25.306;2023-07-31T05:18:37;8.30;;;7.17;;
67715;SDS011;54508;43.238;25.306;2023-07-31T05:21:02;10.27;;;6.93;;
67715;SDS011;54508;43.238;25.306;2023-07-31T05:23:28;8.37;;;6.60;;
67715;SDS011;54508;43.238;25.306;2023-07-31T05:25:53;9.13;;;6.93;;
67715;SDS011;54508;43.238;25.306;2023-07-31T05:28:20;10.93;;;7.10;;
67715;SDS011;54508;43.238;25.306;2023-07-31T05:30:46;6.93;;;6.28;;
67715;SDS011;54508;43.238;25.306;2023-07-31T05:33:12;10.33;;;7.13;;
67715;SDS011;54508;43.238;25.306;2023-07-31T05:35:37;10.55;;;9.05;;
67715;SDS011;54508;43.238;25.306;2023-07-31T05:38:03;10.83;;;9.73;;
67715;SDS011;54508;43.238;25.306;2023-07-31T05:40:31;12.38;;;11.15;;
67715;SDS011;54508;43.238;25.306;2023-07-31T05:42:57;12.82;;;10.73;;
67715;SDS011;54508;43.238;25.306;2023-07-31T05:45:23;15.52;;;11.48;;
67715;SDS011;54508;43.238;25.306;2023-07-31T05:47:50;13.88;;;10.88;;
67715;SDS011;54508;43.238;25.306;2023-07-31T05:50:15;15.35;;;10.70;;
67715;SDS011;54508;43.238;25.306;2023-07-31T05:52:41;12.13;;;10.50;;
67715;SDS011;54508;43.238;25.306;2023-07-31T05:55:07;15.57;;;11.02;;
67715;SDS011;54508;43.238;25.306;2023-07-31T05:57:33;39.45;;;11.23;;
67715;SDS011;54508;43.238;25.306;2023-07-31T05:59:58;12.80;;;11.47;;
67715;SDS011;54508;43.238;25.306;2023-07-31T06:02:24;20.53;;;11.57;;
67715;SDS011;54508;43.238;25.306;2023-07-31T06:04:49;13.60;;;11.07;;
67715;SDS011;54508;43.238;25.306;2023-07-31T06:07:15;17.05;;;11.48;;
67715;SDS011;54508;43.238;25.306;2023-07-31T06:09:40;18.25;;;11.32;;
67715;SDS011;54508;43.238;25.306;2023-07-31T06:12:06;13.53;;;11.03;;
67715;SDS011;54508;43.238;25.306;2023-07-31T06:14:32;14.35;;;10.90;;
67715;SDS011;54508;43.238;25.306;2023-07-31T06:16:57;18.00;;;11.53;;
67715;SDS011;54508;43.238;25.306;2023-07-31T06:19:23;19.23;;;12.50;;
67715;SDS011;54508;43.238;25.306;2023-07-31T06:21:48;24.40;;;14.80;;
67715;SDS011;54508;43.238;25.306;2023-07-31T06:24:14;14.63;;;12.93;;
67715;SDS011;54508;43.238;25.306;2023-07-31T06:26:44;15.52;;;11.55;;
67715;SDS011;54508;43.238;25.306;2023-07-31T06:29:09;13.20;;;11.37;;
67715;SDS011;54508;43.238;25.306;2023-07-31T06:31:35;13.10;;;10.90;;
67715;SDS011;54508;43.238;25.306;2023-07-31T06:34:00;15.33;;;10.83;;
67715;SDS011;54508;43.238;25.306;2023-07-31T06:36:26;13.90;;;10.07;;
67715;SDS011;54508;43.238;25.306;2023-07-31T06:38:51;32.08;;;10.20;;
67715;SDS011;54508;43.238;25.306;2023-07-31T06:41:25;12.52;;;9.73;;
67715;SDS011;54508;43.238;25.306;2023-07-31T06:43:50;17.52;;;10.50;;
67715;SDS011;54508;43.238;25.306;2023-07-31T06:46:16;11.20;;;9.55;;
67715;SDS011;54508;43.238;25.306;2023-07-31T06:48:41;12.82;;;11.27;;
67715;SDS011;54508;43.238;25.306;2023-07-31T06:51:07;16.10;;;11.30;;
67715;SDS011;54508;43.238;25.306;2023-07-31T06:53:32;12.37;;;11.07;;
67715;SDS011;54508;43.238;25.306;2023-07-31T06:55:57;14.87;;;10.73;;
67715;SDS011;54508;43.238;25.306;2023-07-31T06:58:23;18.33;;;10.57;;
67715;SDS011;54508;43.238;25.306;2023-07-31T07:00:48;14.90;;;10.13;;
67715;SDS011;54508;43.238;25.306;2023-07-31T07:03:18;12.07;;;9.73;;
67715;SDS011;54508;43.238;25.306;2023-07-31T07:05:44;15.37;;;10.23;;
67715;SDS011;54508;43.238;25.306;2023-07-31T07:08:09;18.75;;;10.18;;
67715;SDS011;54508;43.238;25.306;2023-07-31T07:10:35;16.87;;;9.70;;
67715;SDS011;54508;43.238;25.306;2023-07-31T07:13:00;14.43;;;8.43;;
67715;SDS011;54508;43.238;25.306;2023-07-31T07:15:25;14.93;;;8.43;;
67715;SDS011;54508;43.238;25.306;2023-07-31T07:17:51;14.80;;;8.63;;
67715;SDS011;54508;43.238;25.306;2023-07-31T07:20:17;21.67;;;9.20;;
67715;SDS011;54508;43.238;25.306;2023-07-31T07:22:44;12.68;;;8.07;;
67715;SDS011;54508;43.238;25.306;2023-07-31T07:25:09;17.23;;;8.40;;
67715;SDS011;54508;43.238;25.306;2023-07-31T07:27:35;20.20;;;8.77;;
67715;SDS011;54508;43.238;25.306;2023-07-31T07:30:00;19.95;;;10.25;;
67715;SDS011;54508;43.238;25.306;2023-07-31T07:32:26;13.23;;;9.57;;
67715;SDS011;54508;43.238;25.306;2023-07-31T07:34:51;12.13;;;8.23;;
67715;SDS011;54508;43.238;25.306;2023-07-31T07:37:17;12.40;;;7.15;;
67715;SDS011;54508;43.238;25.306;2023-07-31T07:39:42;11.23;;;6.47;;
67715;SDS011;54508;43.238;25.306;2023-07-31T07:42:08;9.87;;;6.10;;
67715;SDS011;54508;43.238;25.306;2023-07-31T07:44:33;6.60;;;6.00;;
67715;SDS011;54508;43.238;25.306;2023-07-31T07:46:59;8.55;;;5.63;;
67715;SDS011;54508;43.238;25.306;2023-07-31T07:49:24;10.77;;;6.07;;
67715;SDS011;54508;43.238;25.306;2023-07-31T07:51:50;17.87;;;6.30;;
67715;SDS011;54508;43.238;25.306;2023-07-31T07:54:15;8.37;;;5.77;;
67715;SDS011;54508;43.238;25.306;2023-07-31T07:56:46;7.80;;;5.60;;
67715;SDS011;54508;43.238;25.306;2023-07-31T07:59:11;13.18;;;5.50;;
67715;SDS011;54508;43.238;25.306;2023-07-31T08:01:37;10.17;;;5.53;;
67715;SDS011;54508;43.238;25.306;2023-07-31T08:04:02;7.47;;;4.90;;
67715;SDS011;54508;43.238;25.306;2023-07-31T08:06:28;21.83;;;6.20;;
67715;SDS011;54508;43.238;25.306;2023-07-31T08:08:54;5.78;;;5.15;;
67715;SDS011;54508;43.238;25.306;2023-07-31T08:11:20;16.33;;;5.20;;
67715;SDS011;54508;43.238;25.306;2023-07-31T08:13:47;8.82;;;5.20;;
67715;SDS011;54508;43.238;25.306;2023-07-31T08:16:12;9.53;;;5.20;;
67715;SDS011;54508;43.238;25.306;2023-07-31T08:18:38;60.63;;;6.43;;
67715;SDS011;54508;43.238;25.306;2023-07-31T08:21:05;6.28;;;5.55;;
67715;SDS011;54508;43.238;25.306;2023-07-31T08:23:31;9.87;;;6.00;;
67715;SDS011;54508;43.238;25.306;2023-07-31T08:25:56;7.97;;;5.85;;
67715;SDS011;54508;43.238;25.306;2023-07-31T08:28:22;12.07;;;6.13;;
67715;SDS011;54508;43.238;25.306;2023-07-31T08:30:47;10.37;;;6.10;;
67715;SDS011;54508;43.238;25.306;2023-07-31T08:33:12;9.37;;;5.40;;
67715;SDS011;54508;43.238;25.306;2023-07-31T08:35:38;8.80;;;6.07;;
67715;SDS011;54508;43.238;25.306;2023-07-31T08:38:03;12.40;;;5.83;;
67715;SDS011;54508;43.238;25.306;2023-07-31T08:40:29;9.80;;;6.10;;
67715;SDS011;54508;43.238;25.306;2023-07-31T08:42:55;8.50;;;5.60;;
67715;SDS011;54508;43.238;25.306;2023-07-31T08:45:27;10.38;;;5.72;;
67715;SDS011;54508;43.238;25.306;2023-07-31T08:47:53;9.23;;;4.95;;
67715;SDS011;54508;43.238;25.306;2023-07-31T08:50:19;5.53;;;4.93;;
67715;SDS011;54508;43.238;25.306;2023-07-31T08:52:45;5.07;;;4.57;;
67715;SDS011;54508;43.238;25.306;2023-07-31T08:55:11;4.82;;;4.22;;
67715;SDS011;54508;43.238;25.306;2023-07-31T08:57:37;11.13;;;4.88;;
67715;SDS011;54508;43.238;25.306;2023-07-31T09:00:11;6.10;;;4.75;;
67715;SDS011;54508;43.238;25.306;2023-07-31T09:05:07;5.93;;;4.50;;
67715;SDS011;54508;43.238;25.306;2023-07-31T09:07:33;7.75;;;3.72;;
67715;SDS011;54508;43.238;25.306;2023-07-31T09:10:00;5.35;;;3.90;;
67715;SDS011;54508;43.238;25.306;2023-07-31T09:12:27;10.48;;;4.72;;
67715;SDS011;54508;43.238;25.306;2023-07-31T09:14:53;5.20;;;4.37;;
67715;SDS011;54508;43.238;25.306;2023-07-31T09:19:57;4.05;;;3.65;;
67715;SDS011;54508;43.238;25.306;2023-07-31T09:22:32;5.15;;;4.28;;
67715;SDS011;54508;43.238;25.306;2023-07-31T09:25:18;6.18;;;3.90;;
67715;SDS011;54508;43.238;25.306;2023-07-31T09:30:17;3.95;;;3.65;;
67715;SDS011;54508;43.238;25.306;2023-07-31T09:32:46;9.68;;;3.92;;
67715;SDS011;54508;43.238;25.306;2023-07-31T09:35:27;4.57;;;4.07;;
67715;SDS011;54508;43.238;25.306;2023-07-31T09:37:59;3.90;;;3.45;;
67715;SDS011;54508;43.238;25.306;2023-07-31T09:40:26;5.07;;;4.35;;
67715;SDS011;54508;43.238;25.306;2023-07-31T09:42:53;4.07;;;3.72;;
67715;SDS011;54508;43.238;25.306;2023-07-31T09:45:23;4.47;;;3.90;;
67715;SDS011;54508;43.238;25.306;2023-07-31T09:47:48;4.20;;;3.80;;
67715;SDS011;54508;43.238;25.306;2023-07-31T09:50:14;9.38;;;4.88;;
67715;SDS011;54508;43.238;25.306;2023-07-31T09:52:41;5.82;;;5.22;;
67715;SDS011;54508;43.238;25.306;2023-07-31T09:55:06;7.82;;;5.18;;
67715;SDS011;54508;43.238;25.306;2023-07-31T09:57:32;7.68;;;5.22;;
67715;SDS011;54508;43.238;25.306;2023-07-31T09:59:58;7.68;;;4.90;;
67715;SDS011;54508;43.238;25.306;2023-07-31T10:02:23;8.40;;;5.17;;
67715;SDS011;54508;43.238;25.306;2023-07-31T10:04:50;9.55;;;5.60;;
67715;SDS011;54508;43.238;25.306;2023-07-31T10:07:17;9.68;;;5.25;;
67715;SDS011;54508;43.238;25.306;2023-07-31T10:09:43;6.90;;;5.40;;
67715;SDS011;54508;43.238;25.306;2023-07-31T10:12:10;35.60;;;21.50;;
67715;SDS011;54508;43.238;25.306;2023-07-31T10:14:37;19.45;;;16.00;;
67715;SDS011;54508;43.238;25.306;2023-07-31T10:17:04;23.10;;;13.63;;
67715;SDS011;54508;43.238;25.306;2023-07-31T10:19:30;13.88;;;10.80;;
67715;SDS011;54508;43.238;25.306;2023-07-31T10:21:56;12.80;;;9.67;;
67715;SDS011;54508;43.238;25.306;2023-07-31T10:24:23;10.27;;;8.52;;
67715;SDS011;54508;43.238;25.306;2023-07-31T10:26:49;13.20;;;8.97;;
67715;SDS011;54508;43.238;25.306;2023-07-31T10:29:15;11.43;;;7.47;;
67715;SDS011;54508;43.238;25.306;2023-07-31T10:31:42;30.92;;;8.45;;
67715;SDS011;54508;43.238;25.306;2023-07-31T10:34:08;9.27;;;6.95;;
67715;SDS011;54508;43.238;25.306;2023-07-31T10:36:46;7.65;;;6.70;;
67715;SDS011;54508;43.238;25.306;2023-07-31T10:42:13;16.10;;;7.30;;
67715;SDS011;54508;43.238;25.306;2023-07-31T10:44:51;10.07;;;5.78;;
67715;SDS011;54508;43.238;25.306;2023-07-31T10:47:21;8.93;;;6.13;;
67715;SDS011;54508;43.238;25.306;2023-07-31T10:49:47;7.97;;;5.60;;
67715;SDS011;54508;43.238;25.306;2023-07-31T10:52:13;12.18;;;5.13;;
67715;SDS011;54508;43.238;25.306;2023-07-31T10:54:39;7.50;;;5.13;;
67715;SDS011;54508;43.238;25.306;2023-07-31T10:57:18;8.90;;;5.50;;
67715;SDS011;54508;43.238;25.306;2023-07-31T11:00:17;9.32;;;4.97;;
67715;SDS011;54508;43.238;25.306;2023-07-31T11:02:59;6.57;;;4.60;;
67715;SDS011;54508;43.238;25.306;2023-07-31T11:08:24;5.28;;;4.03;;
67715;SDS011;54508;43.238;25.306;2023-07-31T11:13:26;4.50;;;4.10;;
67715;SDS011;54508;43.238;25.306;2023-07-31T11:15:52;5.13;;;4.10;;
67715;SDS011;54508;43.238;25.306;2023-07-31T11:18:17;4.32;;;3.72;;
67715;SDS011;54508;43.238;25.306;2023-07-31T11:20:43;4.40;;;3.65;;
67715;SDS011;54508;43.238;25.306;2023-07-31T11:23:09;4.13;;;3.70;;
67715;SDS011;54508;43.238;25.306;2023-07-31T11:25:35;3.60;;;3.13;;
67715;SDS011;54508;43.238;25.306;2023-07-31T11:28:05;4.10;;;3.80;;
67715;SDS011;54508;43.238;25.306;2023-07-31T11:30:32;5.50;;;4.25;;
67715;SDS011;54508;43.238;25.306;2023-07-31T11:32:59;5.32;;;3.60;;
67715;SDS011;54508;43.238;25.306;2023-07-31T11:35:26;4.47;;;3.47;;
67715;SDS011;54508;43.238;25.306;2023-07-31T11:37:51;3.60;;;3.05;;
67715;SDS011;54508;43.238;25.306;2023-07-31T11:40:17;3.90;;;3.40;;
67715;SDS011;54508;43.238;25.306;2023-07-31T11:42:43;4.05;;;3.63;;
67715;SDS011;54508;43.238;25.306;2023-07-31T11:45:08;4.03;;;2.92;;
67715;SDS011;54508;43.238;25.306;2023-07-31T11:47:35;7.10;;;3.47;;
67715;SDS011;54508;43.238;25.306;2023-07-31T11:50:02;4.07;;;3.43;;
67715;SDS011;54508;43.238;25.306;2023-07-31T11:52:29;5.88;;;3.38;;
67715;SDS011;54508;43.238;25.306;2023-07-31T11:54:55;5.20;;;3.60;;
67715;SDS011;54508;43.238;25.306;2023-07-31T11:57:21;6.70;;;3.60;;
67715;SDS011;54508;43.238;25.306;2023-07-31T11:59:47;13.17;;;4.10;;
67715;SDS011;54508;43.238;25.306;2023-07-31T12:02:13;6.65;;;3.88;;
67715;SDS011;54508;43.238;25.306;2023-07-31T12:04:39;4.95;;;4.13;;
67715;SDS011;54508;43.238;25.306;2023-07-31T12:07:05;5.13;;;4.03;;
67715;SDS011;54508;43.238;25.306;2023-07-31T12:09:30;5.28;;;4.40;;
67715;SDS011;54508;43.238;25.306;2023-07-31T12:11:56;6.37;;;4.67;;
67715;SDS011;54508;43.238;25.306;2023-07-31T12:16:54;10.85;;;4.30;;
67715;SDS011;54508;43.238;25.306;2023-07-31T12:19:21;6.35;;;4.30;;
67715;SDS011;54508;43.238;25.306;2023-07-31T12:21:47;4.57;;;4.18;;
67715;SDS011;54508;43.238;25.306;2023-07-31T12:24:12;12.63;;;4.67;;
67715;SDS011;54508;43.238;25.306;2023-07-31T12:26:37;8.50;;;4.93;;
67715;SDS011;54508;43.238;25.306;2023-07-31T12:29:05;8.90;;;5.13;;
67715;SDS011;54508;43.238;25.306;2023-07-31T12:31:33;10.30;;;4.63;;
67715;SDS011;54508;43.238;25.306;2023-07-31T12:33:59;6.22;;;5.07;;
67715;SDS011;54508;43.238;25.306;2023-07-31T12:36:24;10.20;;;4.93;;
67715;SDS011;54508;43.238;25.306;2023-07-31T12:38:50;5.87;;;4.70;;
67715;SDS011;54508;43.238;25.306;2023-07-31T12:41:17;5.78;;;4.20;;
67715;SDS011;54508;43.238;25.306;2023-07-31T12:43:43;16.60;;;4.40;;
67715;SDS011;54508;43.238;25.306;2023-07-31T12:46:09;9.05;;;4.95;;
67715;SDS011;54508;43.238;25.306;2023-07-31T12:48:36;8.10;;;5.13;;
67715;SDS011;54508;43.238;25.306;2023-07-31T12:51:02;6.25;;;4.35;;
67715;SDS011;54508;43.238;25.306;2023-07-31T12:53:28;7.28;;;4.55;;
67715;SDS011;54508;43.238;25.306;2023-07-31T12:55:55;5.23;;;4.53;;
67715;SDS011;54508;43.238;25.306;2023-07-31T12:58:21;6.25;;;4.03;;
67715;SDS011;54508;43.238;25.306;2023-07-31T13:00:46;5.80;;;4.40;;
67715;SDS011;54508;43.238;25.306;2023-07-31T13:03:12;7.50;;;4.40;;
67715;SDS011;54508;43.238;25.306;2023-07-31T13:05:37;5.07;;;4.23;;
67715;SDS011;54508;43.238;25.306;2023-07-31T13:08:03;5.23;;;4.50;;
67715;SDS011;54508;43.238;25.306;2023-07-31T13:10:28;5.95;;;4.68;;
67715;SDS011;54508;43.238;25.306;2023-07-31T13:12:55;8.60;;;5.18;;
67715;SDS011;54508;43.238;25.306;2023-07-31T13:15:20;7.47;;;4.95;;
67715;SDS011;54508;43.238;25.306;2023-07-31T13:17:46;6.23;;;4.30;;
67715;SDS011;54508;43.238;25.306;2023-07-31T13:20:12;5.90;;;4.57;;
67715;SDS011;54508;43.238;25.306;2023-07-31T13:22:37;5.73;;;4.17;;
67715;SDS011;54508;43.238;25.306;2023-07-31T13:25:09;5.27;;;4.37;;
67715;SDS011;54508;43.238;25.306;2023-07-31T13:27:37;5.05;;;4.55;;
67715;SDS011;54508;43.238;25.306;2023-07-31T13:30:02;4.70;;;4.30;;
67715;SDS011;54508;43.238;25.306;2023-07-31T13:32:29;6.45;;;3.72;;
67715;SDS011;54508;43.238;25.306;2023-07-31T13:34:54;6.32;;;4.40;;
67715;SDS011;54508;43.238;25.306;2023-07-31T13:37:20;7.37;;;3.97;;
67715;SDS011;54508;43.238;25.306;2023-07-31T13:39:45;5.90;;;3.50;;
67715;SDS011;54508;43.238;25.306;2023-07-31T13:42:11;9.97;;;4.17;;
67715;SDS011;54508;43.238;25.306;2023-07-31T13:44:40;7.82;;;3.65;;
67715;SDS011;54508;43.238;25.306;2023-07-31T13:47:06;7.10;;;3.80;;
67715;SDS011;54508;43.238;25.306;2023-07-31T13:49:32;9.23;;;4.07;;
67715;SDS011;54508;43.238;25.306;2023-07-31T13:51:58;9.18;;;6.57;;
67715;SDS011;54508;43.238;25.306;2023-07-31T13:54:24;10.27;;;6.30;;
67715;SDS011;54508;43.238;25.306;2023-07-31T13:56:49;11.97;;;6.53;;
67715;SDS011;54508;43.238;25.306;2023-07-31T13:59:21;16.27;;;6.10;;
67715;SDS011;54508;43.238;25.306;2023-07-31T14:01:49;12.73;;;6.90;;
67715;SDS011;54508;43.238;25.306;2023-07-31T14:04:15;7.27;;;6.57;;
67715;SDS011;54508;43.238;25.306;2023-07-31T14:06:42;10.80;;;7.13;;
67715;SDS011;54508;43.238;25.306;2023-07-31T14:09:08;9.68;;;6.65;;
67715;SDS011;54508;43.238;25.306;2023-07-31T14:11:33;13.77;;;7.28;;
67715;SDS011;54508;43.238;25.306;2023-07-31T14:13:59;10.87;;;7.57;;
67715;SDS011;54508;43.238;25.306;2023-07-31T14:16:26;10.45;;;8.00;;
67715;SDS011;54508;43.238;25.306;2023-07-31T14:18:52;11.93;;;10.25;;
67715;SDS011;54508;43.238;25.306;2023-07-31T14:21:18;11.30;;;9.70;;
67715;SDS011;54508;43.238;25.306;2023-07-31T14:23:44;14.30;;;9.95;;
67715;SDS011;54508;43.238;25.306;2023-07-31T14:26:10;14.50;;;11.00;;
67715;SDS011;54508;43.238;25.306;2023-07-31T14:28:35;12.13;;;10.18;;
67715;SDS011;54508;43.238;25.306;2023-07-31T14:31:03;12.57;;;10.30;;
67715;SDS011;54508;43.238;25.306;2023-07-31T14:33:31;11.68;;;9.43;;
67715;SDS011;54508;43.238;25.306;2023-07-31T14:35:57;11.40;;;10.27;;
67715;SDS011;54508;43.238;25.306;2023-07-31T14:38:22;17.40;;;12.50;;
67715;SDS011;54508;43.238;25.306;2023-07-31T14:40:48;13.82;;;11.73;;
67715;SDS011;54508;43.238;25.306;2023-07-31T14:43:13;13.73;;;11.57;;
67715;SDS011;54508;43.238;25.306;2023-07-31T14:45:39;16.87;;;12.00;;
67715;SDS011;54508;43.238;25.306;2023-07-31T14:48:04;16.40;;;12.20;;